createdAt,value
2019-03-04T00:00:46.153Z,24.3
2019-03-04T00:01:37.085Z,24.3
2019-03-04T00:02:26.275Z,24.2
2019-03-04T00:03:17.188Z,24.2
2019-03-04T00:04:07.494Z,24.1
2019-03-04T00:04:56.714Z,23.8
2019-03-04T00:05:45.959Z,23.7
2019-03-04T00:06:36.026Z,23.6
2019-03-04T00:07:26.129Z,23.5
2019-03-04T00:08:16.942Z,23.4
2019-03-04T00:09:07.282Z,23.4
2019-03-04T00:09:57.634Z,23.3
2019-03-04T00:10:47.006Z,23.3
2019-03-04T00:11:36.723Z,23.2
2019-03-04T00:12:27.366Z,23.2
2019-03-04T00:13:16.892Z,23.1
2019-03-04T00:14:07.508Z,23.5
2019-03-04T00:14:58.051Z,24.7
2019-03-04T00:15:47.484Z,25.5
2019-03-04T00:16:38.401Z,26.3
2019-03-04T00:17:27.712Z,26.9
2019-03-04T00:18:17.986Z,27.4
2019-03-04T00:19:08.041Z,27.8
2019-03-04T00:19:57.573Z,28.1
2019-03-04T00:20:48.141Z,28.1
2019-03-04T00:21:38.651Z,27.1
2019-03-04T00:22:28.810Z,25.9
2019-03-04T00:23:18.089Z,24.5
2019-03-04T00:24:08.386Z,24.1
2019-03-04T00:24:58.483Z,24
2019-03-04T00:25:48.780Z,24.9
2019-03-04T00:26:38.608Z,25.9
2019-03-04T00:27:28.630Z,26.6
2019-03-04T00:28:18.369Z,27.3
2019-03-04T00:29:08.160Z,27.8
2019-03-04T00:29:59.064Z,28.1
2019-03-04T00:30:49.105Z,28.5
2019-03-04T00:31:38.335Z,28.8
2019-03-04T00:32:29.490Z,29.1
2019-03-04T00:33:17.892Z,29.3
2019-03-04T00:34:09.328Z,29.6
2019-03-04T00:34:58.895Z,29.8
2019-03-04T00:35:49.447Z,30
2019-03-04T00:36:38.410Z,30.3
2019-03-04T00:37:29.313Z,30.4
2019-03-04T00:38:19.100Z,30.6
2019-03-04T00:39:09.130Z,30.8
2019-03-04T00:39:59.468Z,30.9
2019-03-04T00:40:49.550Z,30.1
2019-03-04T00:41:39.354Z,30
2019-03-04T00:42:29.094Z,29.9
2019-03-04T00:43:19.457Z,29.9
2019-03-04T00:44:09.196Z,29.8
2019-03-04T00:44:59.874Z,29.6
2019-03-04T00:45:49.936Z,29.5
2019-03-04T00:46:39.392Z,29.4
2019-03-04T00:47:30.281Z,29.4
2019-03-04T00:48:20.087Z,29.3
2019-03-04T00:49:09.872Z,29.3
2019-03-04T00:50:01.595Z,28.8
2019-03-04T00:50:49.954Z,28
2019-03-04T00:51:40.614Z,27.5
2019-03-04T00:52:29.815Z,27.1
2019-03-04T00:53:20.739Z,26.9
2019-03-04T00:54:10.302Z,26.8
2019-03-04T00:55:00.619Z,26.6
2019-03-04T00:55:51.119Z,26.5
2019-03-04T00:56:40.931Z,26.4
2019-03-04T00:57:30.989Z,26.3
2019-03-04T00:58:20.488Z,26.3
2019-03-04T00:59:10.815Z,26.3
2019-03-04T01:00:00.501Z,26.2
2019-03-04T01:00:50.951Z,25.6
2019-03-04T01:01:40.730Z,25.2
2019-03-04T01:02:30.482Z,24.9
2019-03-04T01:03:20.978Z,24.8
2019-03-04T01:04:11.446Z,24.6
2019-03-04T01:05:00.409Z,24.5
2019-03-04T01:05:51.007Z,24.4
2019-03-04T01:06:41.633Z,24.4
2019-03-04T01:07:30.903Z,24.3
2019-03-04T01:08:21.201Z,24.3
2019-03-04T01:09:11.542Z,24.3
2019-03-04T01:10:15.756Z,24.3
2019-03-04T01:10:50.876Z,24
2019-03-04T01:11:41.760Z,24.5
2019-03-04T01:12:32.066Z,25.6
2019-03-04T01:13:21.553Z,26.4
2019-03-04T01:14:11.335Z,27.1
2019-03-04T01:15:02.945Z,27.6
2019-03-04T01:15:51.220Z,28.1
2019-03-04T01:16:41.780Z,28.4
2019-03-04T01:17:31.840Z,28.6
2019-03-04T01:18:21.661Z,28.9
2019-03-04T01:19:12.517Z,29.2
2019-03-04T01:20:02.732Z,29.4
2019-03-04T01:20:52.142Z,29.7
2019-03-04T01:21:42.682Z,29.9
2019-03-04T01:22:33.051Z,30.1
2019-03-04T01:23:22.807Z,30.2
2019-03-04T01:24:12.347Z,30.4
2019-03-04T01:25:02.450Z,30.5
2019-03-04T01:25:53.027Z,30.7
2019-03-04T01:26:43.044Z,30.8
2019-03-04T01:27:32.810Z,30.9
2019-03-04T01:28:22.317Z,30.9
2019-03-04T01:29:12.713Z,30.1
2019-03-04T01:30:02.872Z,30.1
2019-03-04T01:30:52.764Z,30
2019-03-04T01:31:44.824Z,29.9
2019-03-04T01:32:32.882Z,29.8
2019-03-04T01:33:23.261Z,29.7
2019-03-04T01:34:13.606Z,29.6
2019-03-04T01:35:03.723Z,29.6
2019-03-04T01:35:54.218Z,29.4
2019-03-04T01:36:43.206Z,29.4
2019-03-04T01:37:32.962Z,29.4
2019-03-04T01:38:23.589Z,29.3
2019-03-04T01:39:14.194Z,28.5
2019-03-04T01:40:54.621Z,27.4
2019-03-04T01:41:43.849Z,27.1
2019-03-04T01:42:34.161Z,26.9
2019-03-04T01:43:24.023Z,26.8
2019-03-04T01:44:13.737Z,26.6
2019-03-04T01:45:03.704Z,26.5
2019-03-04T01:45:54.669Z,26.4
2019-03-04T01:46:44.506Z,26.4
2019-03-04T01:47:34.214Z,26.3
2019-03-04T01:48:23.871Z,26.3
2019-03-04T01:49:13.298Z,25.9
2019-03-04T01:50:04.016Z,25.4
2019-03-04T01:50:53.898Z,25.1
2019-03-04T01:51:44.788Z,24.9
2019-03-04T01:52:34.698Z,24.8
2019-03-04T01:53:24.956Z,24.6
2019-03-04T01:54:14.143Z,24.5
2019-03-04T01:55:04.591Z,24.4
2019-03-04T01:55:55.341Z,24.4
2019-03-04T01:56:45.457Z,24.4
2019-03-04T01:57:34.918Z,24.3
2019-03-04T01:58:25.302Z,24.3
2019-03-04T01:59:14.465Z,24.3
2019-03-04T02:00:04.368Z,24.1
2019-03-04T02:00:55.146Z,25.1
2019-03-04T02:01:45.020Z,25.9
2019-03-04T02:02:35.877Z,26.7
2019-03-04T02:03:25.122Z,27.4
2019-03-04T02:04:14.552Z,27.9
2019-03-04T02:05:06.088Z,28.2
2019-03-04T02:05:54.957Z,28.5
2019-03-04T02:06:45.305Z,28.8
2019-03-04T02:07:35.440Z,29
2019-03-04T02:08:25.442Z,29.3
2019-03-04T02:09:15.767Z,29.5
2019-03-04T02:10:05.515Z,29.8
2019-03-04T02:10:56.144Z,29.9
2019-03-04T02:11:46.173Z,30.1
2019-03-04T02:12:36.804Z,30.3
2019-03-04T02:13:25.765Z,30.4
2019-03-04T02:14:15.886Z,30.6
2019-03-04T02:15:07.107Z,30.8
2019-03-04T02:15:55.748Z,30.9
2019-03-04T02:16:45.989Z,31
2019-03-04T02:17:35.527Z,30.2
2019-03-04T02:18:26.687Z,30.1
2019-03-04T02:19:16.762Z,30
2019-03-04T02:20:06.151Z,29.9
2019-03-04T02:20:56.862Z,29.8
2019-03-04T02:21:46.601Z,29.8
2019-03-04T02:22:36.407Z,29.6
2019-03-04T02:23:26.550Z,29.6
2019-03-04T02:24:15.731Z,29.5
2019-03-04T02:25:06.915Z,29.4
2019-03-04T02:25:56.178Z,29.4
2019-03-04T02:26:46.760Z,28.8
2019-03-04T02:27:35.823Z,28.1
2019-03-04T02:28:26.268Z,27.6
2019-03-04T02:29:17.163Z,27.3
2019-03-04T02:30:07.482Z,27.1
2019-03-04T02:30:57.672Z,26.9
2019-03-04T02:31:47.984Z,26.8
2019-03-04T02:32:37.464Z,26.7
2019-03-04T02:33:26.511Z,26.6
2019-03-04T02:34:17.998Z,26.6
2019-03-04T02:35:07.560Z,26.5
2019-03-04T02:35:56.649Z,26.4
2019-03-04T02:36:48.097Z,26.3
2019-03-04T02:37:38.151Z,25.7
2019-03-04T02:38:27.666Z,25.3
2019-03-04T02:39:17.226Z,25.1
2019-03-04T02:40:07.253Z,24.9
2019-03-04T02:40:58.066Z,24.8
2019-03-04T02:41:48.673Z,24.7
2019-03-04T02:42:38.712Z,24.6
2019-03-04T02:43:28.236Z,24.5
2019-03-04T02:44:18.601Z,24.5
2019-03-04T02:45:08.638Z,24.4
2019-03-04T02:45:58.186Z,24.4
2019-03-04T02:46:49.361Z,24.4
2019-03-04T02:47:39.094Z,24.1
2019-03-04T02:48:28.708Z,24.8
2019-03-04T02:49:19.263Z,25.7
2019-03-04T02:50:08.991Z,26.5
2019-03-04T02:50:58.301Z,27.2
2019-03-04T02:51:48.542Z,27.7
2019-03-04T02:52:39.000Z,28
2019-03-04T02:53:28.802Z,28.3
2019-03-04T02:54:18.593Z,28.6
2019-03-04T02:55:08.805Z,28.8
2019-03-04T02:55:58.864Z,29.1
2019-03-04T02:56:49.767Z,29.3
2019-03-04T02:57:38.933Z,29.5
2019-03-04T02:58:29.133Z,29.7
2019-03-04T02:59:19.467Z,29.9
2019-03-04T03:00:08.728Z,30.1
2019-03-04T03:01:00.037Z,29.9
2019-03-04T03:01:49.007Z,28.8
2019-03-04T03:02:39.024Z,27.3
2019-03-04T03:03:29.758Z,26.2
2019-03-04T03:04:20.058Z,24.8
2019-03-04T06:05:51.012Z,30
2019-03-04T06:06:42.180Z,29.9
2019-03-04T06:07:32.016Z,29.8
2019-03-04T06:08:22.027Z,29.7
2019-03-04T06:09:11.252Z,29.6
2019-03-04T06:10:01.770Z,29.4
2019-03-04T06:10:51.407Z,29.4
2019-03-04T06:11:41.676Z,29.3
2019-03-04T06:12:30.896Z,29.3
2019-03-04T06:13:21.559Z,29.3
2019-03-04T06:14:12.427Z,29.1
2019-03-04T06:15:02.777Z,28.2
2019-03-04T06:15:51.757Z,27.6
2019-03-04T06:16:52.221Z,27.3
2019-03-04T06:17:31.270Z,26.9
2019-03-04T06:18:21.639Z,26.8
2019-03-04T06:19:12.761Z,26.7
2019-03-04T06:20:02.236Z,26.6
2019-03-04T06:20:52.059Z,26.4
2019-03-04T06:21:42.701Z,26.4
2019-03-04T06:22:32.706Z,26.3
2019-03-04T06:23:22.511Z,26.3
2019-03-04T06:24:12.878Z,26.2
2019-03-04T06:25:02.447Z,25.8
2019-03-04T06:25:53.194Z,25.3
2019-03-04T06:26:42.791Z,24.9
2019-03-04T06:27:33.095Z,24.8
2019-03-04T06:28:22.311Z,24.6
2019-03-04T06:29:13.198Z,24.5
2019-03-04T06:30:02.451Z,24.4
2019-03-04T06:30:55.311Z,24.4
2019-03-04T06:31:42.887Z,24.3
2019-03-04T06:32:33.995Z,24.3
2019-03-04T06:33:23.795Z,24.2
2019-03-04T06:34:12.220Z,24.2
2019-03-04T06:35:03.346Z,24.1
2019-03-04T06:35:53.110Z,24.2
2019-03-04T06:36:42.970Z,25.3
2019-03-04T06:37:32.755Z,26.2
2019-03-04T06:38:23.091Z,27
2019-03-04T06:39:13.128Z,27.6
2019-03-04T06:40:03.508Z,28.1
2019-03-04T06:40:53.295Z,28.4
2019-03-04T06:41:43.910Z,28.7
2019-03-04T06:42:33.430Z,28.9
2019-03-04T06:43:22.575Z,29.3
2019-03-04T06:44:14.504Z,29.6
2019-03-04T06:45:04.094Z,29.8
2019-03-04T06:45:54.095Z,30.1
2019-03-04T06:46:44.812Z,30.3
2019-03-04T06:47:34.729Z,30.5
2019-03-04T06:48:23.994Z,30.7
2019-03-04T06:49:14.652Z,30.9
2019-03-04T06:50:04.634Z,31.1
2019-03-04T06:50:55.369Z,30.4
2019-03-04T06:51:43.942Z,30.2
2019-03-04T06:52:34.863Z,30.1
2019-03-04T06:53:25.263Z,30.1
2019-03-04T06:54:14.382Z,29.9
2019-03-04T06:55:04.867Z,29.8
2019-03-04T06:55:54.782Z,29.8
2019-03-04T06:56:44.039Z,29.6
2019-03-04T06:57:36.429Z,29.6
2019-03-04T06:58:25.241Z,29.5
2019-03-04T06:59:15.020Z,29.4
2019-03-04T07:00:05.054Z,29.1
2019-03-04T07:00:55.506Z,28.3
2019-03-04T07:01:45.237Z,27.7
2019-03-04T07:02:35.791Z,27.4
2019-03-04T07:03:25.033Z,27.1
2019-03-04T07:05:51.268Z,26.7
2019-03-04T07:06:41.069Z,26.6
2019-03-04T07:07:31.100Z,26.6
2019-03-04T07:08:21.704Z,26.5
2019-03-04T07:09:11.792Z,26.4
2019-03-04T07:10:01.611Z,26.4
2019-03-04T07:10:50.771Z,25.9
2019-03-04T07:11:42.013Z,25.4
2019-03-04T07:12:32.270Z,25.2
2019-03-04T07:13:21.256Z,25
2019-03-04T07:14:11.858Z,24.8
2019-03-04T07:15:01.776Z,24.8
2019-03-04T07:15:51.120Z,24.7
2019-03-04T07:16:42.358Z,24.6
2019-03-04T07:17:31.785Z,24.5
2019-03-04T07:18:21.612Z,24.4
2019-03-04T07:19:11.937Z,24.4
2019-03-04T07:20:02.978Z,24.4
2019-03-04T07:20:52.310Z,24.3
2019-03-04T07:21:42.150Z,24.6
2019-03-04T07:22:32.433Z,25.8
2019-03-04T07:23:22.471Z,26.7
2019-03-04T07:24:13.165Z,27.4
2019-03-04T07:25:01.628Z,28
2019-03-04T07:25:52.627Z,28.4
2019-03-04T07:26:42.472Z,28.9
2019-03-04T07:27:31.995Z,29.2
2019-03-04T07:28:23.647Z,29.5
2019-03-04T07:29:15.484Z,29.8
2019-03-04T07:30:02.651Z,30.1
2019-03-04T07:30:54.870Z,30.4
2019-03-04T07:31:42.827Z,30.6
2019-03-04T07:32:32.627Z,30.9
2019-03-04T07:33:23.089Z,31.1
2019-03-04T07:34:12.451Z,31.3
2019-03-04T07:35:03.230Z,30.6
2019-03-04T07:35:53.879Z,30.1
2019-03-04T07:36:43.410Z,29.9
2019-03-04T07:37:34.005Z,29.8
2019-03-04T07:38:23.759Z,29.6
2019-03-04T07:39:13.301Z,29.5
2019-03-04T07:40:03.929Z,29.4
2019-03-04T07:40:53.416Z,29.3
2019-03-04T07:41:43.779Z,29.2
2019-03-04T07:42:35.684Z,29.1
2019-03-04T07:43:23.369Z,29.1
2019-03-04T07:44:12.627Z,29
2019-03-04T07:45:03.944Z,28.5
2019-03-04T07:46:43.873Z,27.4
2019-03-04T07:47:33.094Z,27.1
2019-03-04T07:48:22.903Z,26.9
2019-03-04T07:49:13.775Z,26.8
2019-03-04T07:50:03.215Z,26.6
2019-03-04T07:50:53.359Z,26.6
2019-03-04T07:51:44.237Z,26.5
2019-03-04T07:52:33.795Z,26.4
2019-03-04T07:53:26.097Z,26.4
2019-03-04T07:54:13.591Z,26.3
2019-03-04T07:55:03.914Z,26.1
2019-03-04T07:55:54.798Z,25.6
2019-03-04T07:56:45.648Z,25.3
2019-03-04T07:57:35.403Z,25.1
2019-03-04T07:58:27.501Z,24.9
2019-03-04T07:59:15.292Z,24.8
2019-03-04T08:00:05.818Z,24.8
2019-03-04T08:00:54.965Z,24.7
2019-03-04T08:01:45.138Z,24.6
2019-03-04T08:02:34.916Z,24.5
2019-03-04T08:03:24.987Z,24.5
2019-03-04T08:04:14.782Z,24.4
2019-03-04T08:05:04.866Z,24.4
2019-03-04T08:05:54.760Z,24.4
2019-03-04T08:06:45.333Z,24.3
2019-03-04T08:07:35.290Z,24.3
2019-03-04T08:08:26.158Z,24.3
2019-03-04T08:09:15.653Z,25.5
2019-03-04T08:10:05.223Z,26.5
2019-03-04T08:10:55.517Z,27.4
2019-03-04T08:11:45.285Z,27.9
2019-03-04T08:12:36.170Z,28.4
2019-03-04T08:13:25.484Z,28.9
2019-03-04T08:14:16.290Z,29.2
2019-03-04T08:15:06.737Z,29.5
2019-03-04T08:15:55.648Z,29.9
2019-03-04T08:16:46.795Z,30.1
2019-03-04T08:17:36.572Z,30.4
2019-03-04T08:18:25.017Z,30.7
2019-03-04T08:19:16.916Z,30.9
2019-03-04T08:20:06.190Z,31.2
2019-03-04T08:20:56.282Z,30.9
2019-03-04T08:21:46.605Z,30.3
2019-03-04T08:22:36.651Z,30.3
2019-03-04T08:23:26.687Z,30.3
2019-03-04T08:24:15.917Z,30.1
2019-03-04T08:25:07.107Z,30
2019-03-04T08:25:57.402Z,29.8
2019-03-04T08:26:46.079Z,29.8
2019-03-04T08:27:36.929Z,29.6
2019-03-04T08:28:27.389Z,29.6
2019-03-04T08:29:17.356Z,29.5
2019-03-04T08:30:07.449Z,29.4
2019-03-04T08:30:57.774Z,29.4
2019-03-04T08:31:47.531Z,29.4
2019-03-04T08:32:37.664Z,29.3
2019-03-04T08:33:27.848Z,29.3
2019-03-04T08:34:17.740Z,29.1
2019-03-04T08:35:07.191Z,29.1
2019-03-04T08:35:57.573Z,29
2019-03-04T08:36:46.769Z,28.9
2019-03-04T08:37:37.642Z,28.9
2019-03-04T08:38:26.409Z,28.8
2019-03-04T08:39:17.781Z,28.7
2019-03-04T08:40:07.640Z,28.6
2019-03-04T08:40:58.175Z,28.6
2019-03-04T08:41:48.236Z,28.5
2019-03-04T08:42:38.287Z,28.4
2019-03-04T08:43:27.494Z,28.4
2019-03-04T08:44:18.388Z,28.3
2019-03-04T08:45:08.543Z,28.2
2019-03-04T08:45:58.251Z,28.1
2019-03-04T08:46:49.139Z,27.9
2019-03-04T08:48:27.908Z,27.7
2019-03-04T08:49:17.703Z,27.6
2019-03-04T08:50:08.555Z,26.8
2019-03-04T08:50:58.663Z,27.2
2019-03-04T08:51:49.248Z,27.9
2019-03-04T08:52:37.626Z,28.5
2019-03-04T08:53:31.417Z,28.9
2019-03-04T08:54:19.200Z,29.3
2019-03-04T08:55:08.663Z,29.6
2019-03-04T08:55:59.593Z,29.9
2019-03-04T08:56:49.290Z,30.2
2019-03-04T08:57:37.760Z,30.5
2019-03-04T08:58:28.346Z,30.8
2019-03-04T08:59:19.202Z,31.1
2019-03-04T09:00:08.498Z,31.4
2019-03-04T09:00:59.557Z,31.5
2019-03-04T09:01:49.640Z,30.6
2019-03-04T09:02:38.371Z,30.6
2019-03-04T09:03:29.558Z,30.5
2019-03-04T09:04:19.039Z,30.4
2019-03-04T09:05:09.402Z,30.3
2019-03-04T09:05:58.335Z,30.1
2019-03-04T09:06:49.199Z,30
2019-03-04T09:07:40.338Z,29.9
2019-03-04T09:08:30.198Z,29.8
2019-03-04T09:09:19.937Z,29.8
2019-03-04T09:10:10.258Z,29.7
2019-03-04T09:10:59.240Z,29.6
2019-03-04T09:11:49.845Z,29.6
2019-03-04T09:12:41.702Z,29.5
2019-03-04T09:13:30.249Z,29.5
2019-03-04T09:14:19.736Z,29.4
2019-03-04T09:15:10.109Z,29.3
2019-03-04T09:15:59.614Z,29.3
2019-03-04T09:16:50.200Z,29.1
2019-03-04T09:17:38.859Z,29.1
2019-03-04T09:18:31.866Z,29
2019-03-04T09:19:20.734Z,28.9
2019-03-04T09:20:10.699Z,28.8
2019-03-04T09:21:00.516Z,28.8
2019-03-04T09:21:50.816Z,28.6
2019-03-04T09:22:40.659Z,28.5
2019-03-04T09:23:30.939Z,28.4
2019-03-04T09:24:20.201Z,28.4
2019-03-04T09:25:10.251Z,28.3
2019-03-04T09:26:00.312Z,28.1
2019-03-04T09:26:50.904Z,28.1
2019-03-04T09:27:41.151Z,27.9
2019-03-04T09:29:20.231Z,27.7
2019-03-04T09:30:10.928Z,27.4
2019-03-04T09:31:00.901Z,27.1
2019-03-04T09:31:50.928Z,27.9
2019-03-04T09:32:41.270Z,28.6
2019-03-04T09:33:31.042Z,29.2
2019-03-04T09:34:21.351Z,29.6
2019-03-04T09:35:11.718Z,29.9
2019-03-04T09:36:02.049Z,30.3
2019-03-04T09:36:51.550Z,30.6
2019-03-04T09:37:41.850Z,31
2019-03-04T09:38:31.353Z,31.3
2019-03-04T09:39:22.308Z,31.6
2019-03-04T09:40:11.815Z,31.7
2019-03-04T09:41:02.148Z,30.9
2019-03-04T09:41:54.756Z,30.9
2019-03-04T09:42:43.182Z,30.8
2019-03-04T09:43:32.553Z,30.6
2019-03-04T09:44:22.303Z,30.5
2019-03-04T09:45:12.438Z,30.4
2019-03-04T09:46:01.946Z,30.3
2019-03-04T09:46:52.530Z,30.1
2019-03-04T09:47:42.282Z,30.1
2019-03-04T09:48:33.148Z,30
2019-03-04T09:49:22.699Z,29.9
2019-03-04T09:50:13.015Z,29.9
2019-03-04T09:51:02.523Z,29.9
2019-03-04T09:51:53.712Z,29.9
2019-03-04T09:52:42.362Z,29.8
2019-03-04T09:53:46.091Z,29.7
2019-03-04T09:54:22.732Z,29.6
2019-03-04T09:55:13.394Z,29.5
2019-03-04T09:56:02.934Z,29.4
2019-03-04T09:56:53.620Z,29.4
2019-03-04T09:57:43.562Z,29.3
2019-03-04T09:58:33.376Z,29.2
2019-03-04T09:59:23.645Z,29.1
2019-03-04T10:00:14.252Z,28.9
2019-03-04T10:01:03.759Z,28.9
2019-03-04T10:01:53.836Z,28.8
2019-03-04T10:02:43.916Z,28.7
2019-03-04T10:03:33.929Z,28.6
2019-03-04T10:04:23.719Z,28.5
2019-03-04T10:06:51.694Z,28.3
2019-03-04T10:07:41.476Z,28.2
2019-03-04T10:08:40.520Z,28.1
2019-03-04T10:09:21.549Z,27.9
2019-03-04T10:10:11.697Z,27.3
2019-03-04T10:11:00.844Z,27.9
2019-03-04T10:11:50.634Z,28.8
2019-03-04T10:12:42.339Z,29.4
2019-03-04T10:13:31.827Z,29.9
2019-03-04T10:14:21.389Z,30.3
2019-03-04T10:15:15.568Z,30.7
2019-03-04T10:16:01.464Z,31.1
2019-03-04T10:16:52.666Z,31.4
2019-03-04T10:17:41.302Z,31.8
2019-03-04T10:18:31.643Z,32.1
2019-03-04T10:19:21.134Z,31.6
2019-03-04T10:20:11.488Z,31.2
2019-03-04T10:21:02.174Z,31.2
2019-03-04T10:21:54.324Z,31.1
2019-03-04T10:22:42.258Z,30.9
2019-03-04T10:23:31.705Z,30.8
2019-03-04T10:24:21.556Z,30.7
2019-03-04T10:25:12.083Z,30.6
2019-03-04T10:26:01.911Z,30.5
2019-03-04T10:26:52.493Z,30.4
2019-03-04T10:27:41.978Z,30.3
2019-03-04T10:28:32.638Z,30.3
2019-03-04T10:29:22.388Z,30.3
2019-03-04T10:30:12.756Z,30.1
2019-03-04T10:31:02.810Z,30.1
2019-03-04T10:31:53.398Z,30.1
2019-03-04T10:32:42.338Z,30
2019-03-04T10:33:33.555Z,29.9
2019-03-04T10:34:22.740Z,29.8
2019-03-04T10:35:13.370Z,29.8
2019-03-04T10:36:02.025Z,29.7
2019-03-04T10:36:53.455Z,29.6
2019-03-04T10:37:43.522Z,29.5
2019-03-04T10:38:32.725Z,29.4
2019-03-04T10:39:29.040Z,29.3
2019-03-04T10:40:12.327Z,29.2
2019-03-04T10:41:05.757Z,29.1
2019-03-04T10:41:53.294Z,29
2019-03-04T10:42:43.900Z,28.9
2019-03-04T10:43:33.109Z,28.8
2019-03-04T10:44:24.002Z,28.7
2019-03-04T10:45:13.489Z,28.6
2019-03-04T10:46:03.850Z,28.5
2019-03-04T10:46:53.909Z,28.4
2019-03-04T10:47:44.507Z,28.3
2019-03-04T10:48:34.672Z,28.1
2019-03-04T10:49:24.617Z,27.4
2019-03-04T10:50:14.117Z,28.1
2019-03-04T10:51:03.907Z,28.9
2019-03-04T10:51:53.762Z,29.6
2019-03-04T10:52:45.132Z,30.1
2019-03-04T10:53:34.715Z,30.5
2019-03-04T10:54:24.696Z,30.9
2019-03-04T10:55:14.203Z,31.3
2019-03-04T10:56:05.096Z,31.8
2019-03-04T10:56:53.886Z,32.2
2019-03-04T10:57:45.309Z,32.5
2019-03-04T10:58:34.154Z,31.4
2019-03-04T10:59:25.306Z,31.3
2019-03-04T11:00:15.159Z,31.1
2019-03-04T11:01:05.226Z,30.8
2019-03-04T11:01:57.398Z,30.6
2019-03-04T11:02:44.701Z,30.3
2019-03-04T11:03:35.101Z,30.1
2019-03-04T11:04:24.076Z,29.9
2019-03-04T11:05:14.666Z,29.8
2019-03-04T11:06:04.972Z,29.7
2019-03-04T11:06:57.332Z,29.6
2019-03-04T11:07:45.165Z,29.5
2019-03-04T11:08:35.766Z,29.4
2019-03-04T11:09:25.806Z,29.4
2019-03-04T11:10:14.751Z,29.3
2019-03-04T11:11:05.865Z,29.2
2019-03-04T11:11:56.164Z,29.1
2019-03-04T11:12:46.255Z,29.1
2019-03-04T11:13:35.768Z,29
2019-03-04T11:14:25.262Z,28.9
2019-03-04T11:15:15.898Z,28.8
2019-03-04T11:16:05.964Z,28.8
2019-03-04T11:16:56.838Z,28.6
2019-03-04T11:17:46.295Z,28.6
2019-03-04T11:18:35.572Z,28.4
2019-03-04T11:19:26.816Z,28.3
2019-03-04T11:20:15.657Z,28.3
2019-03-04T11:21:06.558Z,28.2
2019-03-04T11:21:56.407Z,28.1
2019-03-04T11:22:46.430Z,28.1
2019-03-04T11:23:37.335Z,27.9
2019-03-04T11:24:27.362Z,27.9
2019-03-04T11:25:16.602Z,27.8
2019-03-04T11:26:06.940Z,27.6
2019-03-04T11:26:57.527Z,27.6
2019-03-04T11:27:46.735Z,27.5
2019-03-04T11:28:37.367Z,27.1
2019-03-04T11:29:27.485Z,27.3
2019-03-04T11:30:17.202Z,28.3
2019-03-04T11:31:07.012Z,29.2
2019-03-04T11:31:56.502Z,29.7
2019-03-04T11:32:47.132Z,30.2
2019-03-04T11:33:37.134Z,30.7
2019-03-04T11:34:26.987Z,31.1
2019-03-04T11:35:16.990Z,31.5
2019-03-04T11:36:08.267Z,31.9
2019-03-04T11:36:57.112Z,32.3
2019-03-04T11:37:48.008Z,32
2019-03-04T11:38:37.214Z,31.3
2019-03-04T11:39:27.887Z,31.4
2019-03-04T11:40:17.888Z,31.3
2019-03-04T11:41:07.959Z,31.1
2019-03-04T11:41:57.456Z,30.9
2019-03-04T11:42:50.503Z,30.8
2019-03-04T11:43:37.582Z,30.6
2019-03-04T11:44:28.481Z,30.6
2019-03-04T11:45:17.774Z,30.4
2019-03-04T11:46:08.303Z,30.4
2019-03-04T11:46:58.111Z,30.4
2019-03-04T11:47:48.127Z,30.3
2019-03-04T11:48:38.538Z,30.3
2019-03-04T11:49:28.034Z,30.3
2019-03-04T11:50:17.856Z,30.2
2019-03-04T11:51:08.687Z,30.1
2019-03-04T11:51:58.475Z,30.1
2019-03-04T11:52:49.043Z,29.9
2019-03-04T11:53:38.273Z,29.9
2019-03-04T11:54:28.671Z,29.8
2019-03-04T11:55:18.749Z,29.8
2019-03-04T11:56:09.304Z,29.6
2019-03-04T11:56:59.070Z,29.5
2019-03-04T11:57:49.430Z,29.4
2019-03-04T11:58:39.183Z,29.3
2019-03-04T11:59:29.308Z,29.2
2019-03-04T12:00:18.478Z,29
2019-03-04T12:01:08.893Z,28.9
2019-03-04T12:01:58.905Z,28.8
2019-03-04T12:02:48.936Z,28.7
2019-03-04T12:03:39.553Z,28.6
2019-03-04T12:04:29.623Z,28.4
2019-03-04T12:06:50.810Z,28.1
2019-03-04T12:07:40.520Z,28
2019-03-04T12:08:31.118Z,27.4
2019-03-04T12:10:11.838Z,28.8
2019-03-04T12:11:01.285Z,29.6
2019-03-04T12:11:51.322Z,30.1
2019-03-04T12:12:41.415Z,30.6
2019-03-04T12:13:31.480Z,31.1
2019-03-04T12:14:22.045Z,31.5
2019-03-04T12:15:11.066Z,31.9
2019-03-04T12:16:01.922Z,32.3
2019-03-04T12:16:51.749Z,32.5
2019-03-04T12:17:41.554Z,31.5
2019-03-04T12:18:31.614Z,31.5
2019-03-04T12:19:21.370Z,31.4
2019-03-04T12:20:12.004Z,31.3
2019-03-04T12:21:02.522Z,31.1
2019-03-04T12:21:52.607Z,30.9
2019-03-04T12:22:42.083Z,30.8
2019-03-04T12:23:32.464Z,30.7
2019-03-04T12:24:22.563Z,30.6
2019-03-04T12:25:12.341Z,30.5
2019-03-04T12:26:01.549Z,30.4
2019-03-04T12:26:52.951Z,30.4
2019-03-04T12:27:41.986Z,30.3
2019-03-04T12:28:32.516Z,30.3
2019-03-04T12:29:23.166Z,30.2
2019-03-04T12:30:12.134Z,30.1
2019-03-04T12:31:03.516Z,30
2019-03-04T12:31:52.283Z,29.9
2019-03-04T12:32:43.111Z,29.9
2019-03-04T12:33:33.393Z,29.8
2019-03-04T12:34:32.932Z,29.6
2019-03-04T12:35:12.434Z,29.6
2019-03-04T12:36:03.041Z,29.5
2019-03-04T12:36:52.833Z,29.4
2019-03-04T12:37:44.003Z,29.3
2019-03-04T12:38:34.123Z,29.2
2019-03-04T12:39:22.985Z,29.1
2019-03-04T12:40:13.466Z,29
2019-03-04T12:41:03.660Z,28.9
2019-03-04T12:41:56.495Z,28.8
2019-03-04T12:42:44.106Z,28.6
2019-03-04T12:43:33.875Z,28.5
2019-03-04T12:44:22.548Z,28.4
2019-03-04T12:45:14.218Z,28.3
2019-03-04T12:46:02.922Z,28.2
2019-03-04T12:46:53.845Z,28.1
2019-03-04T12:47:44.161Z,27.9
2019-03-04T12:48:33.973Z,27.3
2019-03-04T12:49:24.868Z,28
2019-03-04T12:50:12.955Z,29.1
2019-03-04T12:51:04.165Z,29.9
2019-03-04T12:51:53.336Z,30.4
2019-03-04T12:52:44.261Z,30.9
2019-03-04T12:53:44.585Z,31.3
2019-03-04T12:54:24.319Z,31.8
2019-03-04T12:55:13.916Z,32.1
2019-03-04T12:56:03.892Z,32.6
2019-03-04T12:56:54.000Z,31.8
2019-03-04T12:57:44.560Z,31.5
2019-03-04T12:58:34.072Z,31.5
2019-03-04T12:59:23.672Z,31.4
2019-03-04T13:00:13.520Z,31.3
2019-03-04T13:01:04.867Z,31.2
2019-03-04T13:01:54.822Z,31.1
2019-03-04T13:02:45.173Z,31
2019-03-04T13:03:34.979Z,30.9
2019-03-04T13:04:25.027Z,30.9
2019-03-04T13:05:14.594Z,30.8
2019-03-04T13:06:04.617Z,30.8
2019-03-04T13:06:55.214Z,30.7
2019-03-04T13:07:45.846Z,30.6
2019-03-04T13:08:36.158Z,30.6
2019-03-04T13:09:24.607Z,30.5
2019-03-04T13:10:15.209Z,30.4
2019-03-04T13:11:06.049Z,30.3
2019-03-04T13:11:55.026Z,30.2
2019-03-04T13:12:45.666Z,30.1
2019-03-04T13:13:35.196Z,29.9
2019-03-04T13:14:26.052Z,29.9
2019-03-04T13:15:15.259Z,29.8
2019-03-04T13:16:05.371Z,29.6
2019-03-04T13:16:56.502Z,29.5
2019-03-04T13:17:45.729Z,29.4
2019-03-04T13:18:36.936Z,29.3
2019-03-04T13:19:25.916Z,29.1
2019-03-04T13:20:15.877Z,29
2019-03-04T13:21:06.289Z,28.9
2019-03-04T13:21:55.464Z,28.8
2019-03-04T13:22:46.663Z,28.6
2019-03-04T13:23:35.823Z,28.6
2019-03-04T13:24:26.563Z,28.4
2019-03-04T13:25:16.233Z,28.4
2019-03-04T13:26:06.615Z,28.3
2019-03-04T13:26:56.888Z,28.1
2019-03-04T13:27:45.610Z,28
2019-03-04T13:28:36.500Z,27.4
2019-03-04T13:29:27.090Z,27.9
2019-03-04T13:30:16.869Z,29
2019-03-04T13:31:22.140Z,29.8
2019-03-04T13:31:57.332Z,30.5
2019-03-04T13:32:47.358Z,30.8
2019-03-04T13:33:37.974Z,31.3
2019-03-04T13:34:26.460Z,31.8
2019-03-04T13:35:27.994Z,32.1
2019-03-04T13:36:06.451Z,32.4
2019-03-04T13:36:57.476Z,31.5
2019-03-04T13:37:47.227Z,31.4
2019-03-04T13:38:37.777Z,31.3
2019-03-04T13:39:27.660Z,31.3
2019-03-04T13:40:16.524Z,31.1
2019-03-04T13:41:07.172Z,30.9
2019-03-04T13:41:57.252Z,30.8
2019-03-04T13:42:49.843Z,30.7
2019-03-04T13:43:37.337Z,30.6
2019-03-04T13:44:27.980Z,30.5
2019-03-04T13:45:17.282Z,30.4
2019-03-04T13:46:07.506Z,30.4
2019-03-04T13:46:57.019Z,30.3
2019-03-04T13:47:48.445Z,30.3
2019-03-04T13:48:37.942Z,30.3
2019-03-04T13:49:27.487Z,30.1
2019-03-04T13:50:18.529Z,30.1
2019-03-04T13:51:09.172Z,30
2019-03-04T13:51:57.624Z,29.9
2019-03-04T13:52:49.259Z,29.8
2019-03-04T13:53:38.804Z,29.7
2019-03-04T13:54:28.865Z,29.6
2019-03-04T13:55:21.277Z,29.6
2019-03-04T13:56:07.928Z,29.4
2019-03-04T13:56:57.689Z,29.4
2019-03-04T13:57:48.520Z,29.3
2019-03-04T13:58:39.131Z,29.3
2019-03-04T13:59:29.516Z,29.1
2019-03-04T14:00:18.522Z,29
2019-03-04T14:01:09.287Z,28.9
2019-03-04T14:01:59.673Z,28.8
2019-03-04T14:02:49.431Z,28.7
2019-03-04T14:03:38.378Z,28.6
2019-03-04T14:04:29.320Z,28.4
2019-03-04T14:05:19.958Z,28.4
2019-03-04T14:08:07.868Z,28
2019-03-04T16:07:50.806Z,27.7
2019-03-04T16:08:40.865Z,27.6
2019-03-04T16:09:30.764Z,27.5
2019-03-04T16:10:19.694Z,27.4
2019-03-04T16:11:10.474Z,26.9
2019-03-04T16:12:00.810Z,27.2
2019-03-04T16:12:51.409Z,28.3
2019-03-04T16:13:40.471Z,29.2
2019-03-04T16:14:31.581Z,29.8
2019-03-04T16:15:21.131Z,30.2
2019-03-04T16:16:10.927Z,30.6
2019-03-04T16:17:02.019Z,31.1
2019-03-04T16:17:50.496Z,31.4
2019-03-04T16:18:42.186Z,31.9